createdAt,value
2019-04-30T00:08:23.132Z,1016.36
2019-04-30T00:23:27.239Z,1016.20
2019-04-30T00:38:29.579Z,1016.04
2019-04-30T00:53:33.681Z,1016.03
2019-04-30T01:08:35.792Z,1015.95
2019-04-30T01:23:36.245Z,1015.95
2019-04-30T01:38:40.072Z,1015.99
2019-04-30T01:53:43.617Z,1016.05
2019-04-30T02:08:43.974Z,1015.95
2019-04-30T02:23:44.170Z,1015.96
2019-04-30T02:38:44.341Z,1016.02
2019-04-30T02:53:44.564Z,1015.94
2019-04-30T03:08:45.284Z,1015.98
2019-04-30T03:23:45.481Z,1016.11
2019-04-30T03:38:45.787Z,1016.05
2019-04-30T03:53:46.006Z,1016.17
2019-04-30T04:08:46.202Z,1016.14
2019-04-30T04:23:49.173Z,1016.37
2019-04-30T04:38:50.719Z,1016.49
2019-04-30T04:53:50.779Z,1016.58
2019-04-30T05:08:50.913Z,1016.72
2019-04-30T05:23:51.113Z,1016.67
2019-04-30T05:38:51.330Z,1016.75
2019-04-30T05:53:51.535Z,1016.71
2019-04-30T06:08:51.743Z,1016.68
2019-04-30T06:23:51.946Z,1016.75
2019-04-30T06:38:52.137Z,1016.88
2019-04-30T06:53:52.270Z,1016.95
2019-04-30T07:08:55.968Z,1016.89
2019-04-30T07:23:59.564Z,1016.96
2019-04-30T07:39:00.108Z,1016.85
2019-04-30T07:54:00.075Z,1016.83
2019-04-30T08:09:01.052Z,1016.74
2019-04-30T08:24:01.499Z,1016.95
2019-04-30T08:39:02.207Z,1016.95
2019-04-30T08:54:02.410Z,1016.80
2019-04-30T09:09:03.865Z,1016.69
2019-04-30T09:24:04.052Z,1016.69
2019-04-30T09:39:04.286Z,1016.60
2019-04-30T09:54:05.254Z,1016.61
2019-04-30T10:09:05.704Z,1016.36
2019-04-30T10:24:14.806Z,1016.13
2019-04-30T10:39:11.149Z,1016.07
2019-04-30T10:54:23.168Z,1016.01
2019-04-30T11:09:16.467Z,1016.03
2019-04-30T11:24:16.718Z,1015.86
2019-04-30T11:39:18.589Z,1015.81
2019-04-30T11:54:19.654Z,1015.79
2019-04-30T12:09:20.385Z,1015.51
2019-04-30T12:24:20.512Z,1015.40
2019-04-30T12:39:20.646Z,1015.33
2019-04-30T12:54:20.731Z,1015.23
2019-04-30T13:09:21.442Z,1015.08
2019-04-30T13:24:22.130Z,1015.04
2019-04-30T13:39:22.164Z,1014.83
2019-04-30T13:54:22.555Z,1014.79
2019-04-30T14:09:22.686Z,1014.80
2019-04-30T14:24:22.783Z,1014.70
2019-04-30T14:39:23.518Z,1014.52
2019-04-30T14:54:23.697Z,1014.53
2019-04-30T15:09:23.848Z,1014.39
2019-04-30T15:24:24.232Z,1014.28
2019-04-30T15:39:24.421Z,1014.15
2019-04-30T15:54:24.653Z,1014.15
2019-04-30T16:09:24.778Z,1014.04
2019-04-30T16:24:24.870Z,1013.92
2019-04-30T16:39:25.182Z,1013.86
2019-04-30T16:54:25.395Z,1013.73
2019-04-30T17:09:25.590Z,1013.77
2019-04-30T17:24:25.802Z,1013.76
2019-04-30T17:39:26.020Z,1013.65
2019-04-30T17:54:26.280Z,1013.65
2019-04-30T18:09:26.479Z,1013.65
2019-04-30T18:24:30.922Z,1013.82
2019-04-30T18:39:31.109Z,1013.77
2019-04-30T18:54:31.318Z,1013.72
2019-04-30T19:09:31.473Z,1013.81
2019-04-30T19:24:32.151Z,1013.90
2019-04-30T19:39:32.585Z,1013.86
2019-04-30T19:54:32.507Z,1013.85
2019-04-30T20:09:32.693Z,1013.91
2019-04-30T20:24:32.847Z,1013.89
2019-04-30T20:39:32.940Z,1013.79
2019-04-30T20:54:33.043Z,1013.67
2019-04-30T21:09:33.282Z,1013.54
2019-04-30T21:24:33.974Z,1013.57
2019-04-30T21:39:34.209Z,1013.42
2019-04-30T21:54:34.315Z,1013.24
2019-04-30T22:09:34.489Z,1013.15
2019-04-30T22:24:34.662Z,1013.09
2019-04-30T22:39:34.826Z,1012.94
2019-04-30T22:54:34.996Z,1012.77
2019-04-30T23:09:35.250Z,1012.63
2019-04-30T23:24:35.321Z,1012.60
2019-04-30T23:39:35.566Z,1012.32
2019-04-30T23:54:35.757Z,1012.24
